Tor Futura — OZZE2 — position and weather

sailwx.info

Track history (hours):
 
Tides and Currents Weather Stations Pressure Air Temp Water Temp Dewpoint Dewpoint Depression Visibility Wind Speed Wind Dir Waves Ship Positions

Tor Futura

Last reported at 2017-Mar-28 09:22 UTC. Time now 2017-Mar-28 14:03 UTC.
Position N 55°34' E 009°45'.

Length 183.1 m; beam 25.2 m; draft 7.8 m.

Type: Ship. MMSI: 219927000.

Date/timePositionNaut miles runAvg speedWind from/ knotsBaromVisibWave heightAir tempDewpointWater temp
2017-Mar-28 09:22N 55°34' E 009°45'79 6.7
2017-Mar-27 21:31N 56°10' E 011°50'1515.5
2017-Mar-27 20:33N 56°11' E 012°16'1515.3
2017-Mar-27 19:33N 56°03' E 012°39'1515.1
2017-Mar-27 18:33N 55°48' E 012°43'7 7.1
2017-Mar-27 17:31N 55°42' E 012°36'0 0.0
2017-Mar-27 16:31N 55°42' E 012°36'0 0.0
2017-Mar-27 15:33N 55°42' E 012°36'4 3.9
2017-Mar-27 14:33N 55°39' E 012°41'1212.0
2017-Mar-27 13:33N 55°27' E 012°42'1211.9
2017-Mar-27 12:33N 55°17' E 012°50'1413.6
2017-Mar-27 11:33N 55°15' E 013°14'1414.0
2017-Mar-27 10:34N 55°15' E 013°38'1414.3
2017-Mar-27 09:34N 55°14' E 014°04'1313.1
2017-Mar-27 08:33N 55°20' E 014°24'1413.9
2017-Mar-27 07:33N 55°27' E 014°45'1514.8
2017-Mar-27 06:33N 55°28' E 015°11'1515.3
2017-Mar-27 05:33N 55°28' E 015°38'1515.2
2017-Mar-27 04:34N 55°29' E 016°05'1515.3
2017-Mar-27 03:33N 55°30' E 016°32'3715.1
2017-Mar-27 01:08N 55°32' E 017°37'1015.2
2017-Mar-27 00:30N 55°33' E 017°53'1515.4
2017-Mar-26 23:32N 55°35' E 018°20'1515.5
2017-Mar-26 22:33N 55°38' E 018°46'71 3.1
2017-Mar-25 23:32N 55°29' E 016°42'1818.0
2017-Mar-25 22:33N 55°27' E 016°11'1818.0
2017-Mar-25 21:34N 55°26' E 015°39'1818.1
2017-Mar-25 20:34N 55°24' E 015°07'1817.6
2017-Mar-25 19:33N 55°21' E 014°37'1717.1
2017-Mar-25 18:33N 55°10' E 014°13'2517.5
2017-Mar-25 17:07N 55°13' E 013°30'1017.7
2017-Mar-25 16:33N 55°14' E 013°12'1717.1
2017-Mar-25 15:34N 55°17' E 012°42'1313.3
2017-Mar-25 14:34N 55°30' E 012°41'1211.9
2017-Mar-25 13:33N 55°42' E 012°38'2 1.5
2017-Mar-25 12:32N 55°42' E 012°36'0 0.0
2017-Mar-25 11:32N 55°42' E 012°36'0 0.0
2017-Mar-25 10:32N 55°42' E 012°36'5 5.6
2017-Mar-25 09:33N 55°47' E 012°42'1515.1
2017-Mar-25 08:34N 56°02' E 012°39'1515.2
2017-Mar-25 07:33N 56°11' E 012°18'24 1.3
2017-Mar-24 12:33N 56°09' E 011°35'1717.4
2017-Mar-24 11:33N 56°11' E 012°06'1616.3
2017-Mar-24 10:33N 56°06' E 012°33'1716.6
2017-Mar-24 09:33N 55°51' E 012°45'1010.0
2017-Mar-24 08:32N 55°42' E 012°36'0 0.0
2017-Mar-24 07:32N 55°42' E 012°36'0 0.0
2017-Mar-24 06:32N 55°42' E 012°36'3 3.2
2017-Mar-24 05:34N 55°40' E 012°40'1313.0
2017-Mar-24 04:34N 55°27' E 012°42'1413.5
2017-Mar-24 03:33N 55°15' E 012°54'1818.3
2017-Mar-24 02:33N 55°15' E 013°26'1918.5
2017-Mar-24 01:33N 55°14' E 013°58'1716.9
2017-Mar-24 00:33N 55°20' E 014°26'1717.0
2017-Mar-23 23:34N 55°27' E 014°53'1818.5
2017-Mar-23 22:34N 55°28' E 015°26'1818.2
2017-Mar-23 21:33N 55°30' E 015°58'1918.5
2017-Mar-23 20:33N 55°30' E 016°31'17 0.6
2017-Mar-22 17:33N 55°30' E 017°01'1818.1
2017-Mar-22 16:33N 55°28' E 016°29'1818.0
2017-Mar-22 15:33N 55°26' E 015°58'1817.8
2017-Mar-22 14:33N 55°24' E 015°27'1817.9
2017-Mar-22 13:33N 55°23' E 014°55'1717.4
2017-Mar-22 12:33N 55°16' E 014°27'1717.2
2017-Mar-22 11:33N 55°11' E 013°59'1818.3
2017-Mar-22 10:33N 55°13' E 013°27'1817.9
2017-Mar-22 09:33N 55°14' E 012°56'1313.1
2017-Mar-22 08:33N 55°24' E 012°39'1413.6
2017-Mar-22 07:34N 55°37' E 012°42'6 6.0
2017-Mar-22 06:33N 55°42' E 012°36'0 0.0
2017-Mar-22 05:33N 55°42' E 012°36'1 0.7
2017-Mar-22 04:33N 55°43' E 012°37'1212.4
2017-Mar-22 03:33N 55°55' E 012°38'1413.8
2017-Mar-22 02:33N 56°07' E 012°28'1616.2
2017-Mar-22 01:33N 56°10' E 011°59'55 2.4
2017-Mar-21 02:33N 55°45' E 010°32'5614.1
2017-Mar-20 22:33N 56°11' E 012°02'1515.0
2017-Mar-20 21:33N 56°09' E 012°28'1616.3
2017-Mar-20 20:33N 55°55' E 012°44'1313.4
2017-Mar-20 19:33N 55°42' E 012°36'1 0.5
2017-Mar-20 18:31N 55°42' E 012°36'0 0.0
2017-Mar-20 17:31N 55°42' E 012°36'1 1.1
2017-Mar-20 16:33N 55°43' E 012°37'1010.4
2017-Mar-20 15:33N 55°33' E 012°43'1413.6
2017-Mar-20 14:33N 55°19' E 012°40'1414.3
2017-Mar-20 13:33N 55°16' E 013°05'3014.9
2017-Mar-20 11:32N 55°14' E 013°58'1414.0
2017-Mar-20 10:33N 55°17' E 014°21'1514.9
2017-Mar-20 09:33N 55°27' E 014°40'1515.1
2017-Mar-20 08:33N 55°27' E 015°07'1515.3
2017-Mar-20 07:33N 55°28' E 015°34'1515.4
2017-Mar-20 06:33N 55°29' E 016°01'1515.1
2017-Mar-20 05:33N 55°30' E 016°27'5 0.2
2017-Mar-18 23:08N 55°28' E 016°19'1016.7
2017-Mar-18 22:33N 55°27' E 016°02'1716.6
2017-Mar-18 21:33N 55°25' E 015°33'1616.4
2017-Mar-18 20:33N 55°24' E 015°04'1616.0
2017-Mar-18 19:33N 55°21' E 014°36'1615.6
2017-Mar-18 18:33N 55°11' E 014°15'1616.1
2017-Mar-18 17:33N 55°12' E 013°46'1616.3
2017-Mar-18 16:33N 55°13' E 013°18'1616.2
2017-Mar-18 15:33N 55°15' E 012°50'1212.3
2017-Mar-18 14:33N 55°26' E 012°40'1312.9
2017-Mar-18 13:33N 55°39' E 012°41'4 4.2
2017-Mar-18 12:33N 55°42' E 012°36'0 0.0
2017-Mar-18 11:33N 55°42' E 012°36'0 0.0
2017-Mar-18 10:33N 55°42' E 012°36'3 3.2
2017-Mar-18 09:34N 55°44' E 012°40'  
Track history (hours):
 
Tides and Currents Weather Stations Pressure Air Temp Water Temp Dewpoint Dewpoint Depression Visibility Wind Speed Wind Dir Waves Ship Positions

Tor Futura

Last reported at 2017-Mar-28 09:22 UTC. Time now 2017-Mar-28 14:03 UTC.
Position N 55°34' E 009°45'.

Length 183.1 m; beam 25.2 m; draft 7.8 m.

Type: Ship. MMSI: 219927000.

Date/timePositionNaut miles runAvg speedWind from/ knotsBaromVisibWave heightAir tempDewpointWater temp
2017-Mar-28 09:22N 55°34' E 009°45'79 6.7
2017-Mar-27 21:31N 56°10' E 011°50'1515.5
2017-Mar-27 20:33N 56°11' E 012°16'1515.3
2017-Mar-27 19:33N 56°03' E 012°39'1515.1
2017-Mar-27 18:33N 55°48' E 012°43'7 7.1
2017-Mar-27 17:31N 55°42' E 012°36'0 0.0
2017-Mar-27 16:31N 55°42' E 012°36'0 0.0
2017-Mar-27 15:33N 55°42' E 012°36'4 3.9
2017-Mar-27 14:33N 55°39' E 012°41'1212.0
2017-Mar-27 13:33N 55°27' E 012°42'1211.9
2017-Mar-27 12:33N 55°17' E 012°50'1413.6
2017-Mar-27 11:33N 55°15' E 013°14'1414.0
2017-Mar-27 10:34N 55°15' E 013°38'1414.3
2017-Mar-27 09:34N 55°14' E 014°04'1313.1
2017-Mar-27 08:33N 55°20' E 014°24'1413.9
2017-Mar-27 07:33N 55°27' E 014°45'1514.8
2017-Mar-27 06:33N 55°28' E 015°11'1515.3
2017-Mar-27 05:33N 55°28' E 015°38'1515.2
2017-Mar-27 04:34N 55°29' E 016°05'1515.3
2017-Mar-27 03:33N 55°30' E 016°32'3715.1
2017-Mar-27 01:08N 55°32' E 017°37'1015.2
2017-Mar-27 00:30N 55°33' E 017°53'1515.4
2017-Mar-26 23:32N 55°35' E 018°20'1515.5
2017-Mar-26 22:33N 55°38' E 018°46'71 3.1
2017-Mar-25 23:32N 55°29' E 016°42'1818.0
2017-Mar-25 22:33N 55°27' E 016°11'1818.0
2017-Mar-25 21:34N 55°26' E 015°39'1818.1
2017-Mar-25 20:34N 55°24' E 015°07'1817.6
2017-Mar-25 19:33N 55°21' E 014°37'1717.1
2017-Mar-25 18:33N 55°10' E 014°13'2517.5
2017-Mar-25 17:07N 55°13' E 013°30'1017.7
2017-Mar-25 16:33N 55°14' E 013°12'1717.1
2017-Mar-25 15:34N 55°17' E 012°42'1313.3
2017-Mar-25 14:34N 55°30' E 012°41'1211.9
2017-Mar-25 13:33N 55°42' E 012°38'2 1.5
2017-Mar-25 12:32N 55°42' E 012°36'0 0.0
2017-Mar-25 11:32N 55°42' E 012°36'0 0.0
2017-Mar-25 10:32N 55°42' E 012°36'5 5.6
2017-Mar-25 09:33N 55°47' E 012°42'1515.1
2017-Mar-25 08:34N 56°02' E 012°39'1515.2
2017-Mar-25 07:33N 56°11' E 012°18'24 1.3
2017-Mar-24 12:33N 56°09' E 011°35'1717.4
2017-Mar-24 11:33N 56°11' E 012°06'1616.3
2017-Mar-24 10:33N 56°06' E 012°33'1716.6
2017-Mar-24 09:33N 55°51' E 012°45'1010.0
2017-Mar-24 08:32N 55°42' E 012°36'0 0.0
2017-Mar-24 07:32N 55°42' E 012°36'0 0.0
2017-Mar-24 06:32N 55°42' E 012°36'3 3.2
2017-Mar-24 05:34N 55°40' E 012°40'1313.0
2017-Mar-24 04:34N 55°27' E 012°42'1413.5
2017-Mar-24 03:33N 55°15' E 012°54'1818.3
2017-Mar-24 02:33N 55°15' E 013°26'1918.5
2017-Mar-24 01:33N 55°14' E 013°58'1716.9
2017-Mar-24 00:33N 55°20' E 014°26'1717.0
2017-Mar-23 23:34N 55°27' E 014°53'1818.5
2017-Mar-23 22:34N 55°28' E 015°26'1818.2
2017-Mar-23 21:33N 55°30' E 015°58'1918.5
2017-Mar-23 20:33N 55°30' E 016°31'17 0.6
2017-Mar-22 17:33N 55°30' E 017°01'1818.1
2017-Mar-22 16:33N 55°28' E 016°29'1818.0
2017-Mar-22 15:33N 55°26' E 015°58'1817.8
2017-Mar-22 14:33N 55°24' E 015°27'1817.9
2017-Mar-22 13:33N 55°23' E 014°55'1717.4
2017-Mar-22 12:33N 55°16' E 014°27'1717.2
2017-Mar-22 11:33N 55°11' E 013°59'1818.3
2017-Mar-22 10:33N 55°13' E 013°27'1817.9
2017-Mar-22 09:33N 55°14' E 012°56'1313.1
2017-Mar-22 08:33N 55°24' E 012°39'1413.6
2017-Mar-22 07:34N 55°37' E 012°42'6 6.0
2017-Mar-22 06:33N 55°42' E 012°36'0 0.0
2017-Mar-22 05:33N 55°42' E 012°36'1 0.7
2017-Mar-22 04:33N 55°43' E 012°37'1212.4
2017-Mar-22 03:33N 55°55' E 012°38'1413.8
2017-Mar-22 02:33N 56°07' E 012°28'1616.2
2017-Mar-22 01:33N 56°10' E 011°59'55 2.4
2017-Mar-21 02:33N 55°45' E 010°32'5614.1
2017-Mar-20 22:33N 56°11' E 012°02'1515.0
2017-Mar-20 21:33N 56°09' E 012°28'1616.3
2017-Mar-20 20:33N 55°55' E 012°44'1313.4
2017-Mar-20 19:33N 55°42' E 012°36'1 0.5
2017-Mar-20 18:31N 55°42' E 012°36'0 0.0
2017-Mar-20 17:31N 55°42' E 012°36'1 1.1
2017-Mar-20 16:33N 55°43' E 012°37'1010.4
2017-Mar-20 15:33N 55°33' E 012°43'1413.6
2017-Mar-20 14:33N 55°19' E 012°40'1414.3
2017-Mar-20 13:33N 55°16' E 013°05'3014.9
2017-Mar-20 11:32N 55°14' E 013°58'1414.0
2017-Mar-20 10:33N 55°17' E 014°21'1514.9
2017-Mar-20 09:33N 55°27' E 014°40'1515.1
2017-Mar-20 08:33N 55°27' E 015°07'1515.3
2017-Mar-20 07:33N 55°28' E 015°34'1515.4
2017-Mar-20 06:33N 55°29' E 016°01'1515.1
2017-Mar-20 05:33N 55°30' E 016°27'5 0.2
2017-Mar-18 23:08N 55°28' E 016°19'1016.7
2017-Mar-18 22:33N 55°27' E 016°02'1716.6
2017-Mar-18 21:33N 55°25' E 015°33'1616.4
2017-Mar-18 20:33N 55°24' E 015°04'1616.0
2017-Mar-18 19:33N 55°21' E 014°36'1615.6
2017-Mar-18 18:33N 55°11' E 014°15'1616.1
2017-Mar-18 17:33N 55°12' E 013°46'1616.3
2017-Mar-18 16:33N 55°13' E 013°18'1616.2
2017-Mar-18 15:33N 55°15' E 012°50'1212.3
2017-Mar-18 14:33N 55°26' E 012°40'1312.9
2017-Mar-18 13:33N 55°39' E 012°41'4 4.2
2017-Mar-18 12:33N 55°42' E 012°36'0 0.0
2017-Mar-18 11:33N 55°42' E 012°36'0 0.0
2017-Mar-18 10:33N 55°42' E 012°36'3 3.2
2017-Mar-18 09:34N 55°44' E 012°40'  

Dump ship's entire track history